Time;durP1;ratioP1;P1;durP2;ratioP2;P2;SDS_P1;SDS_P2;PMS_P1;PMS_P2;Temp;Humidity;BMP_temperature;BMP_pressure;BME280_temperature;BME280_humidity;BME280_pressure;Samples;Min_cycle;Max_cycle;Signal;HPM_P1;HPM_P2
2021/12/04 00:00:15;;;;;;;36.33;18.10;;;-2.60;99.90;;;;;;4141497;28;20271;-65
2021/12/04 00:02:17;;;;;;;30.73;15.93;;;-2.60;99.90;;;;;;4139904;28;20318;-62
2021/12/04 00:04:29;;;;;;;29.67;14.57;;;-2.60;99.90;;;;;;4141059;28;20321;-71
2021/12/04 00:06:36;;;;;;;28.80;14.43;;;-2.60;99.90;;;;;;4138923;28;20336;-62
2021/12/04 00:08:37;;;;;;;28.67;13.10;;;-2.70;99.90;;;;;;4141306;28;20310;-61
2021/12/04 00:10:39;;;;;;;30.63;13.33;;;-2.70;99.90;;;;;;4140037;28;20702;-62
2021/12/04 00:12:41;;;;;;;24.87;11.67;;;-2.70;99.90;;;;;;4141115;28;20275;-63
2021/12/04 00:14:42;;;;;;;33.83;14.13;;;-2.70;99.90;;;;;;4140079;28;20325;-63
2021/12/04 00:16:43;;;;;;;32.33;15.70;;;-2.80;99.90;;;;;;4141450;28;20755;-62
2021/12/04 00:18:44;;;;;;;30.53;15.57;;;-2.80;99.90;;;;;;4140106;28;20349;-63
2021/12/04 00:20:47;;;;;;;35.00;16.97;;;-2.90;99.90;;;;;;4141326;28;20260;-62
2021/12/04 00:22:48;;;;;;;59.60;26.40;;;-2.90;99.90;;;;;;4140554;28;20666;-66
2021/12/04 00:24:49;;;;;;;43.87;21.97;;;-2.90;99.90;;;;;;4140828;28;20309;-63
2021/12/04 00:26:51;;;;;;;46.80;22.10;;;-2.90;99.90;;;;;;4140567;28;20255;-62
2021/12/04 00:28:53;;;;;;;38.47;18.30;;;-2.90;99.90;;;;;;4142008;28;20271;-63
2021/12/04 00:30:55;;;;;;;39.77;18.40;;;-2.90;99.90;;;;;;4144126;28;20267;-65
2021/12/04 00:32:59;;;;;;;38.13;18.13;;;-2.90;99.90;;;;;;4143412;28;20691;-63
2021/12/04 00:51:08;;;;;;;25.97;12.00;;;-2.90;99.90;;;;;;4144635;28;20318;-63
2021/12/04 00:53:09;;;;;;;26.57;12.57;;;-3.00;99.90;;;;;;4142984;28;20349;-63
2021/12/04 00:55:10;;;;;;;26.90;12.30;;;-3.00;99.90;;;;;;4143556;28;20334;-63
2021/12/04 00:57:12;;;;;;;28.13;12.60;;;-3.00;99.90;;;;;;4143269;28;20691;-63
2021/12/04 00:59:14;;;;;;;28.13;12.57;;;-3.00;99.90;;;;;;4143462;28;20295;-62
2021/12/04 01:01:16;;;;;;;27.60;12.60;;;-3.10;99.90;;;;;;4143311;28;20314;-63
2021/12/04 01:03:17;;;;;;;29.27;13.70;;;-3.10;99.90;;;;;;4143026;28;20629;-62
2021/12/04 01:05:19;;;;;;;31.80;13.97;;;-3.20;99.90;;;;;;4143746;28;20267;-63
2021/12/04 01:07:20;;;;;;;28.13;12.93;;;-3.30;99.90;;;;;;4142533;28;20275;-63
2021/12/04 01:09:23;;;;;;;28.47;13.00;;;-3.30;99.90;;;;;;4143786;28;20740;-65
2021/12/04 01:11:25;;;;;;;33.00;13.70;;;-3.40;99.90;;;;;;4142507;28;20883;-61
2021/12/04 01:13:26;;;;;;;25.93;13.03;;;-3.40;99.90;;;;;;4143911;28;20283;-63
2021/12/04 01:15:28;;;;;;;25.80;12.87;;;-3.40;99.90;;;;;;4142895;28;20298;-62
2021/12/04 01:17:29;;;;;;;31.87;13.07;;;-3.40;99.90;;;;;;4143943;28;20680;-62
2021/12/04 01:19:30;;;;;;;28.23;13.87;;;-3.50;99.90;;;;;;4142261;28;20894;-65
2021/12/04 01:21:31;;;;;;;30.80;13.65;;;-3.50;99.90;;;;;;4143550;28;20271;-63
2021/12/04 01:23:33;;;;;;;34.20;13.57;;;-3.50;99.90;;;;;;4142177;28;20092;-62
2021/12/04 01:25:37;;;;;;;29.27;13.43;;;-3.60;99.90;;;;;;4143543;28;20735;-62
2021/12/04 01:27:38;;;;;;;36.10;13.60;;;-3.60;99.90;;;;;;4142491;28;20263;-62
2021/12/04 01:29:42;;;;;;;36.93;17.20;;;-3.60;99.90;;;;;;4143043;28;20337;-61
2021/12/04 01:31:44;;;;;;;42.93;18.03;;;-3.60;99.90;;;;;;4142245;28;21270;-62
2021/12/04 01:33:45;;;;;;;42.17;19.63;;;-3.60;99.90;;;;;;4142896;28;20318;-62
2021/12/04 01:35:47;;;;;;;48.33;21.13;;;-3.60;99.90;;;;;;4142962;28;20259;-64
2021/12/04 01:37:48;;;;;;;48.45;20.30;;;-3.70;99.90;;;;;;4142923;28;20030;-62
2021/12/04 01:39:49;;;;;;;49.10;21.63;;;-3.70;99.90;;;;;;4143166;28;20038;-61
2021/12/04 01:41:51;;;;;;;52.13;21.80;;;-3.70;99.90;;;;;;4141401;28;20349;-62
2021/12/04 01:43:52;;;;;;;46.95;21.00;;;-3.70;99.90;;;;;;4143521;28;20283;-62
2021/12/04 01:45:54;;;;;;;42.25;19.10;;;-3.70;99.90;;;;;;4142546;28;20050;-61
2021/12/04 01:48:00;;;;;;;45.78;19.58;;;-3.70;99.90;;;;;;4143367;28;20030;-62
2021/12/04 01:50:02;;;;;;;38.92;17.27;;;-3.70;99.90;;;;;;4141704;28;20026;-62
2021/12/04 01:52:03;;;;;;;34.70;16.05;;;-3.90;99.90;;;;;;4143231;28;20030;-62
2021/12/04 01:54:05;;;;;;;30.00;14.30;;;-3.90;99.90;;;;;;4141910;28;20038;-60
2021/12/04 01:56:06;;;;;;;31.02;14.88;;;-4.00;99.90;;;;;;4143430;28;20670;-61
2021/12/04 01:58:07;;;;;;;34.20;15.63;;;-4.00;99.90;;;;;;4141653;28;20026;-62
2021/12/04 02:00:09;;;;;;;27.83;13.88;;;-4.00;99.90;;;;;;4143143;28;20041;-63
2021/12/04 02:02:12;;;;;;;30.20;13.02;;;-4.00;99.90;;;;;;4141705;28;20061;-63
2021/12/04 02:04:13;;;;;;;33.75;14.45;;;-4.00;99.90;;;;;;4142686;28;20536;-68
2021/12/04 02:06:14;;;;;;;30.35;12.75;;;-4.00;99.90;;;;;;4142369;28;20034;-62
2021/12/04 02:08:17;;;;;;;30.80;14.18;;;-4.00;99.90;;;;;;4141818;28;20038;-62
2021/12/04 02:10:19;;;;;;;32.20;14.10;;;-4.00;99.90;;;;;;4142544;28;20022;-62
2021/12/04 02:12:20;;;;;;;29.40;13.00;;;-4.10;99.90;;;;;;4141728;28;20537;-62
2021/12/04 02:14:21;;;;;;;30.88;12.80;;;-4.10;99.90;;;;;;4142538;28;20073;-69
2021/12/04 02:16:23;;;;;;;27.38;12.57;;;-4.10;99.90;;;;;;4141924;28;20091;-63
2021/12/04 02:18:24;;;;;;;28.25;13.15;;;-4.10;99.90;;;;;;4142926;28;20583;-70
2021/12/04 02:20:28;;;;;;;27.00;14.73;;;-4.10;99.90;;;;;;4141801;28;20053;-62
2021/12/04 02:22:29;;;;;;;29.80;13.32;;;-4.10;99.90;;;;;;4143148;28;20072;-62
2021/12/04 02:24:30;;;;;;;31.65;13.27;;;-4.20;99.90;;;;;;4141686;28;20026;-63
2021/12/04 02:26:31;;;;;;;35.40;14.00;;;-4.20;99.90;;;;;;4142978;28;20056;-62
2021/12/04 02:28:33;;;;;;;30.48;12.60;;;-4.30;99.90;;;;;;4141555;28;20034;-68
2021/12/04 02:30:37;;;;;;;35.35;12.80;;;-4.40;99.90;;;;;;4142786;28;20520;-64
2021/12/04 02:32:39;;;;;;;29.67;13.07;;;-4.50;99.90;;;;;;4141364;28;20104;-62
2021/12/04 02:34:41;;;;;;;26.65;12.52;;;-4.40;99.90;;;;;;4142558;28;20132;-64
2021/12/04 02:36:42;;;;;;;31.23;14.10;;;-4.50;99.90;;;;;;4141308;28;20475;-63
2021/12/04 02:38:49;;;;;;;36.35;13.02;;;-4.50;99.90;;;;;;4142239;28;20041;-59
2021/12/04 02:40:51;;;;;;;31.83;14.70;;;-4.50;99.90;;;;;;4141758;28;20034;-67
2021/12/04 02:42:52;;;;;;;31.58;13.57;;;-4.50;99.90;;;;;;4142099;28;20045;-61
2021/12/04 02:47:23;;;;;;;32.50;12.32;;;-4.50;99.90;;;;;;4590467;22;20057;-61
2021/12/04 02:49:24;;;;;;;35.15;13.43;;;-4.50;99.90;;;;;;4157475;28;20122;-62
2021/12/04 02:51:25;;;;;;;34.17;14.35;;;-4.50;99.90;;;;;;4158320;28;20404;-65
2021/12/04 02:53:26;;;;;;;28.25;12.60;;;-4.50;99.90;;;;;;4157107;28;20512;-62
2021/12/04 02:55:27;;;;;;;33.45;13.18;;;-4.50;99.90;;;;;;4158359;28;20034;-65
2021/12/04 02:57:29;;;;;;;23.63;10.68;;;-4.60;99.90;;;;;;4157998;28;20071;-62
2021/12/04 02:59:32;;;;;;;23.48;10.15;;;-4.70;99.90;;;;;;4157709;28;20045;-62
2021/12/04 03:01:37;;;;;;;21.77;9.15;;;-4.70;99.90;;;;;;4157883;28;20547;-61
2021/12/04 03:03:38;;;;;;;19.27;9.00;;;-4.80;99.90;;;;;;4156872;28;20422;-63
2021/12/04 03:05:39;;;;;;;19.63;8.10;;;-4.80;99.90;;;;;;4158136;28;20552;-62
2021/12/04 03:07:40;;;;;;;20.42;9.13;;;-4.80;99.90;;;;;;4156957;28;20030;-64
2021/12/04 03:09:42;;;;;;;16.65;8.30;;;-4.80;99.90;;;;;;4158375;28;20025;-62
2021/12/04 03:11:43;;;;;;;19.80;9.32;;;-4.80;99.90;;;;;;4156960;28;20046;-61
2021/12/04 03:13:45;;;;;;;24.33;9.50;;;-4.80;99.90;;;;;;4158406;28;20076;-61
2021/12/04 03:15:49;;;;;;;21.33;8.93;;;-4.90;99.90;;;;;;4157095;28;20099;-62
2021/12/04 03:17:51;;;;;;;30.98;11.23;;;-4.90;99.90;;;;;;4158323;28;20084;-64
2021/12/04 03:19:53;;;;;;;23.33;10.73;;;-5.10;99.90;;;;;;4156757;28;20481;-62
2021/12/04 03:21:55;;;;;;;29.35;11.50;;;-5.10;99.90;;;;;;4157918;28;20096;-61
2021/12/04 03:24:01;;;;;;;27.48;11.32;;;-5.20;99.90;;;;;;4156900;28;20033;-62
2021/12/04 03:26:08;;;;;;;34.42;12.82;;;-5.20;99.90;;;;;;4157942;28;20052;-62
2021/12/04 03:28:12;;;;;;;26.88;11.43;;;-5.20;99.90;;;;;;4157241;28;20091;-62
2021/12/04 03:30:42;;;;;;;31.15;12.13;;;-5.20;99.90;;;;;;4157444;28;20084;-62
2021/12/04 03:32:57;;;;;;;31.70;12.45;;;-5.20;99.90;;;;;;4156785;28;20103;-61
2021/12/04 03:41:55;;;;;;;19.38;9.07;;;-5.20;99.90;;;;;;4156863;28;20087;-65
2021/12/04 03:43:56;;;;;;;25.17;10.63;;;-5.20;99.90;;;;;;4157741;28;20033;-62
2021/12/04 03:46:01;;;;;;;25.95;11.23;;;-5.30;99.90;;;;;;4155408;28;20548;-62
2021/12/04 03:48:12;;;;;;;23.77;11.27;;;-5.30;99.90;;;;;;4157040;28;20067;-62
2021/12/04 03:50:16;;;;;;;23.08;10.95;;;-5.40;99.90;;;;;;4157331;28;20463;-62
2021/12/04 03:52:17;;;;;;;26.40;11.77;;;-5.30;99.90;;;;;;4158156;28;20448;-62
2021/12/04 03:54:19;;;;;;;22.90;11.68;;;-5.30;99.90;;;;;;4156825;28;20144;-62
2021/12/04 03:56:22;;;;;;;25.55;11.48;;;-5.30;99.90;;;;;;4157584;28;20037;-64
2021/12/04 03:58:24;;;;;;;28.80;11.70;;;-5.30;99.90;;;;;;4157083;28;20037;-63
2021/12/04 04:00:28;;;;;;;26.95;12.48;;;-5.30;99.90;;;;;;4156930;28;20456;-62
2021/12/04 04:02:29;;;;;;;29.83;11.68;;;-5.40;99.90;;;;;;4157061;28;21121;-62
2021/12/04 04:04:30;;;;;;;30.75;11.60;;;-5.30;99.90;;;;;;4156016;28;20049;-64
2021/12/04 04:06:31;;;;;;;31.27;12.80;;;-5.40;99.90;;;;;;4157065;28;20563;-65
2021/12/04 04:08:32;;;;;;;28.95;11.05;;;-5.30;99.90;;;;;;4156464;28;20041;-65
2021/12/04 04:10:34;;;;;;;24.95;11.20;;;-5.30;99.90;;;;;;4157231;28;20072;-64
2021/12/04 04:12:35;;;;;;;28.10;12.05;;;-5.30;99.90;;;;;;4156151;28;20025;-62
2021/12/04 04:14:37;;;;;;;33.95;12.23;;;-5.30;99.90;;;;;;4157033;28;20091;-63
2021/12/04 04:16:40;;;;;;;28.75;11.77;;;-5.20;99.90;;;;;;4155991;28;20026;-62
2021/12/04 04:18:41;;;;;;;31.65;13.85;;;-5.20;99.90;;;;;;4157411;28;20029;-61
2021/12/04 04:20:42;;;;;;;29.00;12.88;;;-5.20;99.90;;;;;;4156755;28;20049;-62
2021/12/04 04:22:45;;;;;;;32.58;13.95;;;-5.20;99.90;;;;;;4157442;28;20083;-65
2021/12/04 04:24:46;;;;;;;24.20;12.57;;;-5.20;99.90;;;;;;4156413;28;20370;-65
2021/12/04 04:26:48;;;;;;;46.42;15.40;;;-5.20;99.90;;;;;;4156214;28;20033;-64
2021/12/04 04:28:49;;;;;;;24.67;12.23;;;-5.20;99.90;;;;;;4155955;28;20026;-62
2021/12/04 04:30:50;;;;;;;25.60;12.02;;;-5.30;99.90;;;;;;4156891;28;20033;-62
2021/12/04 04:32:53;;;;;;;26.58;12.35;;;-5.40;99.90;;;;;;4156261;28;20030;-62
2021/12/04 04:34:56;;;;;;;23.73;11.02;;;-5.40;99.90;;;;;;4156695;28;20630;-62
2021/12/04 04:37:22;;;;;;;27.67;12.52;;;-5.50;99.90;;;;;;4157060;28;20492;-62
2021/12/04 04:58:07;;;;;;;23.92;11.77;;;-5.70;99.90;;;;;;4157217;28;20444;-62
2021/12/04 05:11:45;;;;;;;27.25;9.38;;;-5.70;99.90;;;;;;4156277;28;20056;-62
2021/12/04 05:13:46;;;;;;;26.63;10.50;;;-5.70;99.90;;;;;;4156349;28;20045;-63
2021/12/04 05:18:05;;;;;;;22.95;10.18;;;-5.60;99.90;;;;;;4158706;28;20079;-64
2021/12/04 05:20:08;;;;;;;24.95;11.20;;;-5.60;99.90;;;;;;4159434;28;20556;-62
2021/12/04 05:22:11;;;;;;;23.98;11.20;;;-5.60;99.90;;;;;;4157322;28;20049;-64
2021/12/04 05:24:12;;;;;;;28.20;11.75;;;-5.70;99.90;;;;;;4159993;28;20075;-62
2021/12/04 05:26:26;;;;;;;23.65;10.88;;;-5.60;99.90;;;;;;4158243;28;20033;-62
2021/12/04 05:28:28;;;;;;;29.50;10.77;;;-5.70;99.90;;;;;;4159932;28;20469;-61
2021/12/04 05:30:30;;;;;;;34.75;12.23;;;-5.70;99.90;;;;;;4158659;28;20103;-62
2021/12/04 05:32:31;;;;;;;31.88;12.93;;;-5.70;99.90;;;;;;4159735;28;20107;-64
2021/12/04 05:34:33;;;;;;;23.20;11.90;;;-5.70;99.90;;;;;;4158245;28;20042;-61
2021/12/04 05:36:34;;;;;;;26.45;11.73;;;-5.70;99.90;;;;;;4159188;28;20049;-62
2021/12/04 05:38:37;;;;;;;25.73;10.60;;;-5.70;99.90;;;;;;4158552;28;20037;-61
2021/12/04 05:40:38;;;;;;;30.15;12.27;;;-5.70;99.90;;;;;;4159497;28;20033;-62
2021/12/04 05:42:39;;;;;;;25.73;12.32;;;-5.70;99.90;;;;;;4158354;28;20037;-62
2021/12/04 05:44:42;;;;;;;41.10;13.63;;;-5.70;99.90;;;;;;4159245;28;20064;-62
2021/12/04 05:46:47;;;;;;;34.20;13.13;;;-5.60;99.90;;;;;;4158173;28;20095;-61
2021/12/04 05:48:55;;;;;;;35.10;14.15;;;-5.60;99.90;;;;;;4159015;28;20535;-61
2021/12/04 05:51:14;;;;;;;31.45;13.95;;;-5.60;99.90;;;;;;4158851;28;20025;-61
2021/12/04 05:55:21;;;;;;;37.60;13.85;;;-5.60;99.90;;;;;;4157362;28;20169;-62
2021/12/04 05:57:23;;;;;;;36.72;14.25;;;-5.60;99.90;;;;;;4161438;28;20080;-63
2021/12/04 05:59:24;;;;;;;42.65;14.52;;;-5.60;99.90;;;;;;4158240;28;20079;-62
2021/12/04 06:01:27;;;;;;;29.02;13.05;;;-5.50;99.90;;;;;;4158276;28;20436;-62
2021/12/04 06:03:28;;;;;;;25.98;12.30;;;-5.50;99.90;;;;;;4158914;28;20059;-63
2021/12/04 06:05:29;;;;;;;34.22;14.00;;;-5.50;99.90;;;;;;4157997;28;20029;-61
2021/12/04 06:07:31;;;;;;;35.65;14.50;;;-5.50;99.90;;;;;;4159201;28;20474;-61
2021/12/04 06:09:32;;;;;;;38.78;14.85;;;-5.60;99.90;;;;;;4157748;28;20868;-60
2021/12/04 06:11:33;;;;;;;32.40;15.88;;;-5.60;99.90;;;;;;4157893;28;20034;-64
2021/12/04 06:13:35;;;;;;;39.97;17.70;;;-5.60;99.90;;;;;;4158156;28;20030;-62
2021/12/04 06:15:36;;;;;;;67.65;18.05;;;-5.60;99.90;;;;;;4159243;28;20091;-61
2021/12/04 06:17:37;;;;;;;50.15;17.83;;;-5.60;99.90;;;;;;4157095;28;20030;-61
2021/12/04 06:24:17;;;;;;;47.05;16.98;;;-5.40;99.90;;;;;;4158989;28;20091;-61
2021/12/04 06:26:18;;;;;;;37.40;17.58;;;-5.30;99.90;;;;;;4157747;28;20497;-60
2021/12/04 06:28:20;;;;;;;32.75;15.35;;;-5.30;99.90;;;;;;4158601;28;20042;-61
2021/12/04 06:30:23;;;;;;;38.55;15.63;;;-5.20;99.90;;;;;;4157384;28;20068;-62
2021/12/04 06:32:25;;;;;;;46.03;18.63;;;-5.10;99.90;;;;;;4158402;28;20056;-62
2021/12/04 06:34:27;;;;;;;55.33;20.48;;;-5.10;99.90;;;;;;4156840;28;20442;-62
2021/12/04 06:36:29;;;;;;;53.78;21.38;;;-5.00;99.90;;;;;;4158089;28;20088;-61
2021/12/04 06:38:30;;;;;;;66.28;22.25;;;-5.00;99.90;;;;;;4157408;28;20033;-64
2021/12/04 06:40:31;;;;;;;138.80;38.47;;;-5.00;99.90;;;;;;4157926;28;20057;-62
2021/12/04 06:42:32;;;;;;;102.97;32.47;;;-5.10;99.90;;;;;;4157371;28;20372;-61
2021/12/04 06:44:34;;;;;;;65.55;24.63;;;-4.90;99.90;;;;;;4157567;28;20025;-61
2021/12/04 06:46:35;;;;;;;57.38;21.35;;;-5.00;99.90;;;;;;4157956;28;20033;-62
2021/12/04 06:48:43;;;;;;;47.88;20.67;;;-5.00;99.90;;;;;;4156538;28;20060;-60
2021/12/04 06:52:47;;;;;;;52.05;22.30;;;-5.00;99.90;;;;;;4156505;28;20551;-62
2021/12/04 06:54:59;;;;;;;47.88;20.70;;;-5.00;99.90;;;;;;4158016;28;20162;-62
2021/12/04 06:57:01;;;;;;;59.33;21.30;;;-5.00;99.90;;;;;;4156596;28;20060;-62
2021/12/04 06:59:07;;;;;;;50.30;20.33;;;-4.90;99.90;;;;;;4158030;28;20029;-61
2021/12/04 07:01:10;;;;;;;55.35;22.10;;;-4.80;99.90;;;;;;4155342;28;20053;-62
2021/12/04 07:03:11;;;;;;;52.63;22.77;;;-4.70;99.90;;;;;;4157823;28;20083;-63
2021/12/04 07:05:13;;;;;;;54.13;22.45;;;-4.70;99.90;;;;;;4156256;28;20416;-62
2021/12/04 07:07:14;;;;;;;55.42;22.23;;;-4.70;99.90;;;;;;4157452;28;20415;-61
2021/12/04 07:09:15;;;;;;;45.83;20.20;;;-4.60;99.90;;;;;;4156741;28;20504;-62
2021/12/04 07:11:17;;;;;;;51.20;20.92;;;-4.60;99.90;;;;;;4158204;28;20041;-60
2021/12/04 07:13:18;;;;;;;45.17;19.80;;;-4.60;99.90;;;;;;4156635;28;20116;-64
2021/12/04 07:15:19;;;;;;;48.67;19.67;;;-4.60;99.90;;;;;;4157730;28;20440;-62
2021/12/04 07:17:21;;;;;;;46.53;19.50;;;-4.50;99.90;;;;;;4157068;28;20547;-61
2021/12/04 07:19:22;;;;;;;44.97;18.30;;;-4.40;99.90;;;;;;4157118;28;20042;-63
2021/12/04 07:21:24;;;;;;;42.15;17.70;;;-4.30;99.90;;;;;;4157173;28;20634;-61
2021/12/04 07:23:25;;;;;;;42.33;18.52;;;-4.20;99.90;;;;;;4156599;28;20087;-62
2021/12/04 07:25:27;;;;;;;40.85;18.20;;;-4.20;99.90;;;;;;4156323;28;20045;-62
2021/12/04 07:27:28;;;;;;;41.92;19.02;;;-4.20;99.90;;;;;;4156163;28;20151;-64
2021/12/04 07:29:29;;;;;;;55.58;20.45;;;-4.10;99.90;;;;;;4157631;28;20424;-62
2021/12/04 07:31:31;;;;;;;43.92;19.50;;;-4.10;99.90;;;;;;4156373;28;20066;-62
2021/12/04 07:33:32;;;;;;;46.90;21.67;;;-4.10;99.90;;;;;;4157677;28;20478;-61
2021/12/04 07:35:33;;;;;;;54.10;21.45;;;-4.00;99.90;;;;;;4156304;28;20033;-62
2021/12/04 07:37:35;;;;;;;45.05;19.35;;;-3.90;99.90;;;;;;4157226;28;20448;-62
2021/12/04 07:39:36;;;;;;;49.65;20.50;;;-3.80;99.90;;;;;;4155680;28;20033;-62
2021/12/04 07:41:42;;;;;;;45.78;21.15;;;-3.80;99.90;;;;;;4157275;28;20079;-62
2021/12/04 07:43:44;;;;;;;52.63;21.95;;;-3.70;99.90;;;;;;4155605;28;20441;-62
2021/12/04 07:45:45;;;;;;;58.65;20.60;;;-3.60;99.90;;;;;;4156744;28;20444;-62
2021/12/04 07:47:47;;;;;;;52.60;20.02;;;-3.50;99.90;;;;;;4153636;28;20099;-66
2021/12/04 07:49:48;;;;;;;50.95;19.85;;;-3.50;99.90;;;;;;4157201;28;20041;-62
2021/12/04 07:51:50;;;;;;;49.25;21.75;;;-3.40;99.90;;;;;;4156680;28;20091;-61
2021/12/04 07:53:51;;;;;;;51.33;25.30;;;-3.40;99.90;;;;;;4156617;28;20512;-62
2021/12/04 07:55:52;;;;;;;51.72;23.42;;;-3.30;99.90;;;;;;4156982;28;20064;-62
2021/12/04 07:57:54;;;;;;;43.13;19.17;;;-3.30;99.90;;;;;;4155747;28;20084;-62
2021/12/04 07:59:55;;;;;;;37.90;18.60;;;-3.30;99.90;;;;;;4156694;28;20041;-61
2021/12/04 08:01:57;;;;;;;39.15;16.95;;;-3.30;99.90;;;;;;4155727;28;20087;-61
2021/12/04 08:03:59;;;;;;;41.40;20.25;;;-3.40;99.90;;;;;;4157185;28;20037;-61
2021/12/04 08:06:00;;;;;;;46.58;18.73;;;-3.50;99.90;;;;;;4155988;28;20045;-61
2021/12/04 08:08:02;;;;;;;37.75;17.83;;;-3.50;99.90;;;;;;4156525;28;20045;-68
2021/12/04 08:10:05;;;;;;;38.40;19.17;;;-3.50;99.90;;;;;;4155383;28;20029;-60
2021/12/04 08:12:07;;;;;;;33.47;15.90;;;-3.60;99.90;;;;;;4157264;28;20307;-61
2021/12/04 08:14:08;;;;;;;36.40;16.58;;;-3.60;99.90;;;;;;4155994;28;20139;-64
2021/12/04 08:16:09;;;;;;;37.27;18.37;;;-3.60;99.90;;;;;;4157584;28;20034;-64
2021/12/04 08:18:12;;;;;;;32.38;16.13;;;-3.60;99.90;;;;;;4155884;28;20370;-62
2021/12/04 08:20:16;;;;;;;41.88;17.85;;;-3.50;99.90;;;;;;4157207;28;20103;-66
2021/12/04 08:22:17;;;;;;;38.75;18.83;;;-3.50;99.90;;;;;;4156246;28;20100;-62
2021/12/04 08:24:18;;;;;;;36.05;17.35;;;-3.40;99.90;;;;;;4156631;28;20053;-63
2021/12/04 08:26:19;;;;;;;38.03;17.52;;;-3.40;99.90;;;;;;4156263;28;20714;-61
2021/12/04 08:28:20;;;;;;;40.67;17.30;;;-3.40;99.90;;;;;;4156374;28;20046;-61
2021/12/04 08:30:25;;;;;;;39.15;18.40;;;-3.40;99.90;;;;;;4156523;28;20052;-62
2021/12/04 08:32:27;;;;;;;33.00;16.53;;;-3.30;99.90;;;;;;4155234;28;20038;-63
2021/12/04 08:34:28;;;;;;;47.90;20.47;;;-3.20;99.90;;;;;;4156710;28;20271;-61
2021/12/04 08:36:32;;;;;;;44.03;21.13;;;-3.10;99.90;;;;;;4155724;28;20274;-62
2021/12/04 08:38:35;;;;;;;42.35;21.95;;;-3.10;99.90;;;;;;4157027;28;20416;-62
2021/12/04 08:40:38;;;;;;;45.50;20.93;;;-3.10;99.90;;;;;;4155026;28;20049;-62
2021/12/04 08:42:40;;;;;;;35.65;18.55;;;-3.10;99.90;;;;;;4156529;28;20354;-65
2021/12/04 08:44:43;;;;;;;44.88;18.92;;;-3.00;99.90;;;;;;4155440;28;20033;-63
2021/12/04 08:46:45;;;;;;;38.40;19.27;;;-3.00;99.90;;;;;;4156498;28;20119;-61
2021/12/04 08:48:52;;;;;;;38.70;19.10;;;-2.90;99.90;;;;;;4155369;28;20305;-62
2021/12/04 08:50:54;;;;;;;37.00;18.33;;;-2.90;99.90;;;;;;4158078;28;20313;-62
2021/12/04 08:52:56;;;;;;;37.78;18.02;;;-2.80;99.90;;;;;;4158294;28;20029;-62
2021/12/04 08:54:58;;;;;;;41.47;18.47;;;-2.80;99.90;;;;;;4160117;28;20037;-60
2021/12/04 08:56:59;;;;;;;35.70;17.70;;;-2.80;99.90;;;;;;4159207;28;20251;-61
2021/12/04 08:59:03;;;;;;;41.45;16.83;;;-2.80;99.90;;;;;;4159004;28;20428;-63
2021/12/04 09:01:06;;;;;;;36.40;14.63;;;-2.70;99.90;;;;;;4158528;28;20045;-62
2021/12/04 09:03:09;;;;;;;38.63;16.20;;;-2.70;99.90;;;;;;4157678;28;20329;-62
2021/12/04 09:05:11;;;;;;;33.50;15.77;;;-2.60;99.90;;;;;;4159436;28;20258;-65
2021/12/04 09:07:13;;;;;;;35.88;17.85;;;-2.50;99.90;;;;;;4158422;28;20025;-65
2021/12/04 09:09:15;;;;;;;33.97;15.80;;;-2.40;99.90;;;;;;4158730;28;20088;-60
2021/12/04 09:11:32;;;;;;;27.87;14.20;;;-2.30;99.90;;;;;;4157982;28;20703;-61
2021/12/04 09:13:35;;;;;;;35.57;15.47;;;-2.30;99.90;;;;;;4159097;28;20357;-62
2021/12/04 09:15:37;;;;;;;33.77;16.83;;;-2.20;99.90;;;;;;4157483;28;20274;-68
2021/12/04 09:17:39;;;;;;;36.70;18.37;;;-2.10;99.90;;;;;;4159606;28;20279;-62
2021/12/04 09:19:40;;;;;;;38.33;18.87;;;-2.00;99.90;;;;;;4158231;28;20317;-62
2021/12/04 09:21:41;;;;;;;36.57;17.23;;;-2.00;99.90;;;;;;4159463;28;20299;-62
2021/12/04 09:23:49;;;;;;;29.90;14.30;;;-2.00;99.90;;;;;;4157811;28;20275;-65
2021/12/04 09:25:59;;;;;;;27.27;13.03;;;-1.90;99.90;;;;;;4159104;28;20324;-61
2021/12/04 09:28:14;;;;;;;25.00;11.85;;;-1.90;99.90;;;;;;4157988;28;20290;-62
2021/12/04 09:30:49;;;;;;;21.23;10.07;;;-1.90;99.90;;;;;;4159469;28;20091;-62
2021/12/04 10:00:47;;;;;;;;;;;-1.40;99.90;;;;;;4164609;28;20339;-58
2021/12/04 10:33:19;;;;;;;22.97;10.33;;;-1.40;99.90;;;;;;4151918;28;20875;-60
2021/12/04 10:35:22;;;;;;;23.83;10.73;;;-1.40;99.90;;;;;;4153179;28;20290;-62
2021/12/04 10:37:27;;;;;;;27.33;10.87;;;-1.40;99.90;;;;;;4152543;28;20340;-62
2021/12/04 10:39:28;;;;;;;25.53;10.27;;;-1.50;99.90;;;;;;4158498;28;20279;-62
2021/12/04 10:41:32;;;;;;;22.83;11.73;;;-1.40;99.90;;;;;;4156643;28;20339;-61
2021/12/04 10:43:35;;;;;;;18.90;10.13;;;-1.40;99.90;;;;;;4157965;28;20677;-62
2021/12/04 10:45:40;;;;;;;22.20;10.47;;;-1.40;99.90;;;;;;4157025;28;20825;-59
2021/12/04 10:48:06;;;;;;;20.63;9.63;;;-1.40;99.90;;;;;;4158120;28;20278;-69
2021/12/04 10:50:25;;;;;;;24.00;11.13;;;-1.30;99.90;;;;;;4156337;28;20275;-60
2021/12/04 10:52:46;;;;;;;22.23;10.50;;;-1.20;99.90;;;;;;4158285;28;20266;-61
2021/12/04 10:54:52;;;;;;;20.83;10.70;;;-1.20;99.90;;;;;;4156928;28;20678;-61
2021/12/04 10:57:17;;;;;;;22.93;10.00;;;-1.10;99.90;;;;;;4144586;28;20822;-62
2021/12/04 11:03:49;;;;;;;30.60;12.23;;;-1.00;99.90;;;;;;4160762;28;20340;-59
2021/12/04 11:44:53;;;;;;;25.97;11.03;;;-0.70;99.90;;;;;;4153921;28;20792;-62
2021/12/04 11:46:59;;;;;;;24.07;11.80;;;-0.60;99.90;;;;;;4151942;28;20832;-61
2021/12/04 11:49:09;;;;;;;25.83;11.97;;;-0.60;99.90;;;;;;4150416;28;20286;-61
2021/12/04 11:51:20;;;;;;;28.85;11.63;;;-0.60;99.90;;;;;;4150622;28;20294;-68
2021/12/04 11:53:21;;;;;;;21.53;11.47;;;-0.50;99.90;;;;;;4152166;28;20964;-63
2021/12/04 11:55:25;;;;;;;26.37;12.23;;;-0.50;99.90;;;;;;4150117;28;20258;-60
2021/12/04 11:57:32;;;;;;;25.27;12.03;;;-0.50;99.90;;;;;;4151815;28;20617;-61
2021/12/04 11:59:36;;;;;;;28.57;11.67;;;-0.40;99.90;;;;;;4150892;28;20275;-62
2021/12/04 12:01:39;;;;;;;25.10;10.37;;;-0.40;99.90;;;;;;4151449;28;20298;-60
2021/12/04 12:03:54;;;;;;;23.70;11.10;;;-0.40;99.90;;;;;;4149757;28;20324;-59
2021/12/04 12:05:55;;;;;;;29.43;13.30;;;-0.30;99.90;;;;;;4152528;28;20302;-58
2021/12/04 12:07:58;;;;;;;28.40;13.10;;;-0.30;99.90;;;;;;4155769;28;20367;-64
2021/12/04 12:10:07;;;;;;;31.27;14.77;;;-0.30;99.90;;;;;;4156466;28;20279;-60
2021/12/04 12:12:12;;;;;;;25.87;12.47;;;-0.30;99.90;;;;;;4154867;28;20266;-61
2021/12/04 12:14:15;;;;;;;23.50;11.63;;;-0.30;99.90;;;;;;4157054;28;20412;-63
2021/12/04 12:16:18;;;;;;;25.73;12.83;;;-0.30;99.90;;;;;;4155224;28;20275;-60
2021/12/04 12:18:22;;;;;;;25.17;11.50;;;-0.30;99.90;;;;;;4156411;28;20263;-63
2021/12/04 12:20:37;;;;;;;26.07;12.83;;;-0.30;99.90;;;;;;4155862;28;20262;-64
2021/12/04 12:22:50;;;;;;;19.47;10.07;;;-0.30;99.90;;;;;;4157520;28;20362;-60
2021/12/04 12:32:20;;;;;;;29.43;11.80;;;-0.50;99.90;;;;;;4143590;28;20813;-58
2021/12/04 12:36:38;;;;;;;26.00;11.77;;;-0.50;99.90;;;;;;4159670;28;20328;-61
2021/12/04 12:39:02;;;;;;;27.37;12.37;;;-0.40;99.90;;;;;;4157235;28;20290;-63
2021/12/04 12:41:08;;;;;;;25.37;12.03;;;-0.40;99.90;;;;;;4159503;28;20340;-61
2021/12/04 12:43:18;;;;;;;27.23;13.93;;;-0.40;99.90;;;;;;4158409;28;20752;-62
2021/12/04 12:45:34;;;;;;;28.02;12.95;;;-0.40;99.90;;;;;;4159545;28;20279;-72
2021/12/04 12:47:50;;;;;;;22.33;10.27;;;-0.40;99.90;;;;;;4158571;28;20057;-67
2021/12/04 12:49:51;;;;;;;24.03;10.60;;;-0.40;99.90;;;;;;4159484;28;21375;-62
2021/12/04 12:51:57;;;;;;;25.47;11.20;;;-0.50;99.90;;;;;;4158971;28;20608;-73
2021/12/04 12:54:02;;;;;;;26.73;12.20;;;-0.50;99.90;;;;;;4159976;28;20274;-56
2021/12/04 12:56:10;;;;;;;26.13;11.73;;;-0.40;99.90;;;;;;4157180;28;20286;-68
2021/12/04 12:58:19;;;;;;;22.07;11.30;;;-0.30;99.90;;;;;;4171684;28;20781;-60
2021/12/04 13:12:08;;;;;;;25.77;11.93;;;-0.30;99.90;;;;;;4175139;28;20566;-61
2021/12/04 13:14:17;;;;;;;23.00;11.60;;;-0.30;99.90;;;;;;4159365;28;20329;-59
2021/12/04 13:16:29;;;;;;;23.77;11.73;;;-0.30;99.90;;;;;;4158672;28;20266;-68
2021/12/04 13:18:35;;;;;;;22.67;10.67;;;-0.30;99.90;;;;;;4158877;28;20266;-60
2021/12/04 13:20:37;;;;;;;33.97;15.17;;;-0.30;99.90;;;;;;4158505;28;20255;-60
2021/12/04 13:22:38;;;;;;;24.70;13.47;;;-0.30;99.90;;;;;;4158623;28;20295;-66
2021/12/04 13:24:42;;;;;;;25.90;12.70;;;-0.30;99.90;;;;;;4159000;28;20259;-63
2021/12/04 13:26:47;;;;;;;26.37;11.70;;;-0.30;99.90;;;;;;4158783;28;20321;-61
2021/12/04 13:28:50;;;;;;;22.03;11.37;;;-0.40;99.90;;;;;;4159012;28;20271;-59
2021/12/04 13:30:52;;;;;;;24.40;11.17;;;-0.50;99.90;;;;;;4158018;28;20270;-60
2021/12/04 13:32:53;;;;;;;23.30;11.97;;;-0.60;99.90;;;;;;4159157;28;20263;-59
2021/12/04 13:34:54;;;;;;;25.67;11.73;;;-0.60;99.90;;;;;;4157826;28;20329;-55
2021/12/04 13:36:58;;;;;;;23.47;11.27;;;-0.60;99.90;;;;;;4158149;28;20278;-60